메인 페이지
METAR-TAF:

METAR-TAF

공항 :

Houma-Terrebonne Airport

Houma, 루이지애나, 미국

위도: 29-34N, 경도: 090-40W, 고도: 3m

현재 날씨관측

예보는 14분 전, 09:35시(UTC)에 발표되었습니다.
무풍
온도 23°C
습도 100%
기압 1012 hPa
시정: 3.2km
맑음
박무

METAR: KHUM 190935Z AUTO 00000KT 2SM BR CLR 23/23 A2989 RMK AO2 VIS 3/4V5 T02330230

시각: 04:49 (09:49 UTC)

예보

예보는 4 시간 9분 전, 05:40시(UTC)에 발표되었습니다.
예보 대상 시간: 19일 06시부터 20일 06시까지 (UTC)
kt
시정: 10km
고도 3000ft 상공 구름 보통
19일 1600시부터 (UTC)
남서7kt
시정: 10km
고도 11000ft 상공 구름 많음
19일 1900시부터 (UTC)
남서10kt
시정: 10km
고도 5000ft 상공 구름 보통
20일 0000시부터 (UTC)
8kt
시정: 10km
맑음

TAF: KHUM 190540Z 1906/2006 00000KT P6SM SCT030 FM191600 22007KT P6SM BKN110 FM191900 22010KT P6SM SCT050 FM200000 19008KT P6SM SKC

4,000개 이상의 공항 관측 자료 및 예보 (METAR 및 TAF 보고).

지도상에서 검색 가능한 기상관측소가 노란 점과 빨간 점으로 표시되어 있습니다.

기상관측소 명을 보려면 표시 위로 마우스를 이동하세요.

날씨 관측과 예보를 보려면 클릭하세요.

지도 변경 : 확대하려면 엑스 표시가 있는 녹색 버튼, 축소하려면 빼기 표시가 있는 녹색 버튼, 다음 페이지의 지도를 보려면 녹색 화살표를 클릭하세요.


METAR-TAF: